createdAt,value
2022-10-23T00:01:23.152Z,7.05
2022-10-23T00:03:57.944Z,7.97
2022-10-23T00:06:24.932Z,9.23
2022-10-23T00:08:51.518Z,6.00
2022-10-23T00:11:21.027Z,6.40
2022-10-23T00:13:47.858Z,5.63
2022-10-23T00:16:14.720Z,5.85
2022-10-23T00:18:41.472Z,5.68
2022-10-23T00:21:15.143Z,4.65
2022-10-23T00:23:41.803Z,5.43
2022-10-23T00:26:11.024Z,5.40
2022-10-23T00:28:38.475Z,5.47
2022-10-23T00:31:05.880Z,4.55
2022-10-23T00:33:32.723Z,4.53
2022-10-23T00:35:59.257Z,5.85
2022-10-23T00:38:26.235Z,4.97
2022-10-23T00:40:52.777Z,5.40
2022-10-23T00:45:47.315Z,5.72
2022-10-23T00:48:14.312Z,6.00
2022-10-23T00:50:41.679Z,5.65
2022-10-23T00:53:11.380Z,5.70
2022-10-23T00:55:39.553Z,4.55
2022-10-23T00:58:06.467Z,4.45
2022-10-23T01:00:44.555Z,4.38
2022-10-23T01:03:11.638Z,4.22
2022-10-23T01:06:17.854Z,4.50
2022-10-23T01:08:59.623Z,4.60
2022-10-23T01:11:32.709Z,4.45
2022-10-23T01:14:06.455Z,4.45
2022-10-23T01:16:41.327Z,4.88
2022-10-23T01:19:45.562Z,5.53
2022-10-23T01:22:37.671Z,9.05
2022-10-23T01:25:27.818Z,7.18
2022-10-23T01:28:02.995Z,9.13
2022-10-23T01:30:30.725Z,9.05
2022-10-23T01:33:26.013Z,7.65
2022-10-23T01:36:00.971Z,6.18
2022-10-23T01:38:38.487Z,6.13
2022-10-23T01:41:19.589Z,5.30
2022-10-23T01:43:56.357Z,5.13
2022-10-23T01:46:27.233Z,4.10
2022-10-23T01:48:56.590Z,3.53
2022-10-23T01:51:27.067Z,4.22
2022-10-23T01:53:59.564Z,4.40
2022-10-23T01:56:30.992Z,4.18
2022-10-23T01:59:01.279Z,5.70
2022-10-23T02:01:33.830Z,4.88
2022-10-23T02:04:03.056Z,4.45
2022-10-23T02:06:29.661Z,4.65
2022-10-23T02:11:23.116Z,5.60
2022-10-23T02:14:14.435Z,5.82
2022-10-23T02:16:50.614Z,6.40
2022-10-23T02:19:42.701Z,5.93
2022-10-23T02:22:20.877Z,6.03
2022-10-23T02:25:04.523Z,4.95
2022-10-23T02:27:34.574Z,4.93
2022-10-23T02:30:06.029Z,5.22
2022-10-23T02:32:35.996Z,3.65
2022-10-23T02:35:03.787Z,3.50
2022-10-23T02:37:30.586Z,4.28
2022-10-23T02:39:57.506Z,3.97
2022-10-23T02:42:32.944Z,3.65
2022-10-23T02:45:09.023Z,4.07
2022-10-23T02:48:07.831Z,5.55
2022-10-23T02:51:03.236Z,4.82
2022-10-23T02:53:41.597Z,4.57
2022-10-23T02:56:16.472Z,5.30
2022-10-23T02:59:20.061Z,4.35
2022-10-23T03:01:52.026Z,4.38
2022-10-23T03:04:21.691Z,3.92
2022-10-23T03:06:50.371Z,5.07
2022-10-23T03:09:17.968Z,5.57
2022-10-23T03:11:44.509Z,5.45
2022-10-23T03:14:13.350Z,5.78
2022-10-23T03:16:40.195Z,5.72
2022-10-23T03:19:09.055Z,6.63
2022-10-23T03:21:35.759Z,5.78
2022-10-23T03:24:06.591Z,6.22
2022-10-23T03:26:38.070Z,6.70
2022-10-23T03:29:04.977Z,6.90
2022-10-23T03:31:34.590Z,5.55
2022-10-23T03:36:30.742Z,5.80
2022-10-23T03:41:23.710Z,6.43
2022-10-23T03:46:16.689Z,5.40
2022-10-23T03:51:10.522Z,4.18
2022-10-23T03:53:40.315Z,6.53
2022-10-23T03:58:33.876Z,7.38
2022-10-23T04:01:00.405Z,6.88
2022-10-23T04:03:27.550Z,7.93
2022-10-23T04:08:22.387Z,9.18
2022-10-23T04:10:52.106Z,7.82
2022-10-23T04:13:23.922Z,5.90
2022-10-23T04:15:52.601Z,6.78
2022-10-23T04:18:19.784Z,5.75
2022-10-23T04:20:50.283Z,5.40
2022-10-23T04:23:17.005Z,11.10
2022-10-23T04:25:45.252Z,5.57
2022-10-23T04:28:11.974Z,5.57
2022-10-23T04:30:41.582Z,5.50
2022-10-23T04:33:10.486Z,6.47
2022-10-23T04:35:37.122Z,6.93
2022-10-23T04:40:30.364Z,6.40
2022-10-23T04:42:57.046Z,6.72
2022-10-23T04:45:23.739Z,6.63
2022-10-23T04:47:50.337Z,6.68
2022-10-23T04:50:16.948Z,6.13
2022-10-23T04:53:02.442Z,6.68
2022-10-23T04:55:57.813Z,6.38
2022-10-23T04:58:44.591Z,6.05
2022-10-23T05:03:38.289Z,6.32
2022-10-23T05:06:05.541Z,6.40
2022-10-23T05:08:50.752Z,6.63
2022-10-23T05:11:36.739Z,5.60
2022-10-23T05:14:06.937Z,7.78
2022-10-23T05:19:20.662Z,7.53
2022-10-23T05:21:55.694Z,8.73
2022-10-23T05:24:26.511Z,7.38
2022-10-23T05:26:59.711Z,10.05
2022-10-23T05:29:29.351Z,8.23
2022-10-23T05:32:00.906Z,9.05
2022-10-23T05:34:32.207Z,10.60
2022-10-23T05:37:01.756Z,9.30
2022-10-23T05:39:30.450Z,8.93
2022-10-23T05:42:00.027Z,8.70
2022-10-23T05:44:26.744Z,5.65
2022-10-23T05:47:17.643Z,6.72
2022-10-23T05:50:08.306Z,5.82
2022-10-23T05:53:03.969Z,8.05
2022-10-23T05:55:38.172Z,8.45
2022-10-23T05:58:16.892Z,7.22
2022-10-23T06:01:09.065Z,5.70
2022-10-23T06:03:51.866Z,6.50
2022-10-23T06:06:21.059Z,7.30
2022-10-23T06:08:49.346Z,7.57
2022-10-23T06:11:18.490Z,8.38
2022-10-23T06:13:54.578Z,4.93
2022-10-23T06:16:27.737Z,5.20
2022-10-23T06:18:55.002Z,6.18
2022-10-23T06:21:21.611Z,7.18
2022-10-23T06:23:50.026Z,8.23
2022-10-23T06:26:39.890Z,10.07
2022-10-23T06:29:09.538Z,11.02
2022-10-23T06:31:36.788Z,10.63
2022-10-23T06:34:04.404Z,10.75
2022-10-23T06:36:31.328Z,10.45
2022-10-23T06:42:09.072Z,13.10
2022-10-23T06:44:53.673Z,12.77
2022-10-23T06:47:43.584Z,9.00
2022-10-23T06:50:25.817Z,9.00
2022-10-23T06:52:53.935Z,9.65
2022-10-23T06:55:21.967Z,10.82
2022-10-23T06:57:48.601Z,11.40
2022-10-23T07:00:15.490Z,11.25
2022-10-23T07:02:50.820Z,9.25
2022-10-23T07:05:18.369Z,10.60
2022-10-23T07:07:45.076Z,9.95
2022-10-23T07:10:15.449Z,10.50
2022-10-23T07:12:45.321Z,11.63
2022-10-23T07:15:41.674Z,10.80
2022-10-23T07:18:17.015Z,10.50
2022-10-23T07:21:02.693Z,9.75
2022-10-23T07:23:31.217Z,9.80
2022-10-23T07:26:07.046Z,9.10
2022-10-23T07:28:34.420Z,9.15
2022-10-23T07:31:02.076Z,9.63
2022-10-23T07:33:48.978Z,12.50
2022-10-23T07:36:18.996Z,11.90
2022-10-23T07:38:46.101Z,8.90
2022-10-23T07:41:13.152Z,7.60
2022-10-23T07:43:40.301Z,8.35
2022-10-23T07:46:09.693Z,8.95
2022-10-23T07:48:39.738Z,8.65
2022-10-23T07:51:14.079Z,8.07
2022-10-23T07:53:44.603Z,9.60
2022-10-23T07:56:34.532Z,9.25
2022-10-23T07:59:13.432Z,9.10
2022-10-23T08:01:42.950Z,8.48
2022-10-23T08:04:10.789Z,9.75
2022-10-23T08:06:44.530Z,8.93
2022-10-23T08:09:11.139Z,8.98
2022-10-23T08:11:40.295Z,10.55
2022-10-23T08:14:09.720Z,11.52
2022-10-23T08:16:39.257Z,11.00
2022-10-23T08:19:07.156Z,9.90
2022-10-23T08:21:35.954Z,9.88
2022-10-23T08:24:04.651Z,10.00
2022-10-23T08:26:31.429Z,10.05
2022-10-23T08:28:59.669Z,10.20
2022-10-23T08:31:27.774Z,9.52
2022-10-23T08:36:44.370Z,11.05
2022-10-23T08:39:11.387Z,9.65
2022-10-23T08:41:47.663Z,9.30
2022-10-23T08:44:21.598Z,9.50
2022-10-23T08:47:12.164Z,9.38
2022-10-23T08:53:40.235Z,8.90
2022-10-23T08:56:28.320Z,7.32
2022-10-23T08:59:01.800Z,6.22
2022-10-23T09:01:47.409Z,7.65
2022-10-23T09:04:15.331Z,7.57
2022-10-23T09:07:07.178Z,7.07
2022-10-23T09:09:39.694Z,6.68
2022-10-23T09:12:17.567Z,5.35
2022-10-23T09:14:55.376Z,6.30
2022-10-23T09:17:30.967Z,5.95
2022-10-23T09:20:25.819Z,4.88
2022-10-23T09:22:59.375Z,4.35
2022-10-23T09:25:35.057Z,4.28
2022-10-23T09:28:05.229Z,3.78
2022-10-23T09:30:42.938Z,3.78
2022-10-23T09:36:05.098Z,3.05
2022-10-23T09:38:31.777Z,3.85
2022-10-23T09:43:27.603Z,3.15
2022-10-23T09:46:02.914Z,3.58
2022-10-23T09:48:30.128Z,2.75
2022-10-23T09:56:02.174Z,3.22
2022-10-23T09:58:33.449Z,3.40
2022-10-23T10:01:00.799Z,2.85
2022-10-23T10:03:53.837Z,2.85
2022-10-23T10:06:33.303Z,2.97
2022-10-23T10:09:03.203Z,3.10
2022-10-23T10:11:55.243Z,3.30
2022-10-23T10:14:49.160Z,3.20
2022-10-23T10:32:32.202Z,2.97
2022-10-23T10:35:19.032Z,2.80
2022-10-23T10:38:14.713Z,2.65
2022-10-23T10:41:29.415Z,2.78
2022-10-23T10:44:05.237Z,2.10
2022-10-23T10:46:58.502Z,2.20
2022-10-23T10:49:49.500Z,2.28
2022-10-23T10:53:05.832Z,2.13
2022-10-23T10:55:41.949Z,2.35
2022-10-23T10:58:24.804Z,2.00
2022-10-23T11:00:56.908Z,2.03
2022-10-23T11:03:30.213Z,2.08
2022-10-23T11:08:49.807Z,2.20
2022-10-23T11:11:32.030Z,2.33
2022-10-23T11:13:58.611Z,2.40
2022-10-23T11:19:03.661Z,1.88
2022-10-23T11:21:42.551Z,2.03
2022-10-23T11:24:28.551Z,2.22
2022-10-23T11:27:18.684Z,2.25
2022-10-23T11:30:00.570Z,2.40
2022-10-23T11:32:49.693Z,2.22
2022-10-23T11:35:49.900Z,1.90
2022-10-23T11:38:20.273Z,2.40
2022-10-23T11:40:53.574Z,2.40
2022-10-23T11:43:31.333Z,2.53
2022-10-23T11:45:58.508Z,5.75
2022-10-23T11:48:37.246Z,5.25
2022-10-23T11:51:05.498Z,4.10
2022-10-23T11:53:31.952Z,2.97
2022-10-23T11:56:14.479Z,2.63
2022-10-23T11:58:47.029Z,2.50
2022-10-23T12:01:16.405Z,2.75
2022-10-23T12:03:52.150Z,1.85
2022-10-23T12:06:27.131Z,3.20
2022-10-23T12:08:58.850Z,2.80
2022-10-23T12:11:46.467Z,2.90
2022-10-23T12:16:53.269Z,2.70
2022-10-23T12:19:23.004Z,2.90
2022-10-23T12:21:57.157Z,2.90
2022-10-23T12:24:39.814Z,2.25
2022-10-23T12:27:34.063Z,2.38
2022-10-23T12:30:30.284Z,3.28
2022-10-23T12:33:28.223Z,2.72
2022-10-23T12:36:15.871Z,2.95
2022-10-23T12:41:17.533Z,3.83
2022-10-23T12:43:53.107Z,2.83
2022-10-23T12:46:32.676Z,2.60
2022-10-23T12:49:01.361Z,2.92
2022-10-23T12:51:30.719Z,2.70
2022-10-23T12:53:57.820Z,3.55
2022-10-23T12:56:27.132Z,3.42
2022-10-23T12:59:02.269Z,3.22
2022-10-23T13:01:31.790Z,2.88
2022-10-23T13:04:21.252Z,2.30
2022-10-23T13:06:49.512Z,2.75
2022-10-23T13:09:24.567Z,2.30
2022-10-23T13:12:20.847Z,2.78
2022-10-23T13:15:19.386Z,3.28
2022-10-23T13:17:58.071Z,2.60
2022-10-23T13:20:35.148Z,3.70
2022-10-23T13:25:39.445Z,7.82
2022-10-23T13:28:20.799Z,3.95
2022-10-23T13:31:04.855Z,2.95
2022-10-23T13:33:37.335Z,2.58
2022-10-23T13:36:06.188Z,2.35
2022-10-23T13:38:37.984Z,2.28
2022-10-23T13:41:12.547Z,2.40
2022-10-23T13:43:39.643Z,2.17
2022-10-23T13:48:37.595Z,3.30
2022-10-23T13:51:13.748Z,3.08
2022-10-23T13:53:40.364Z,2.63
2022-10-23T13:56:07.642Z,2.35
2022-10-23T13:58:34.109Z,3.70
2022-10-23T14:01:00.907Z,2.40
2022-10-23T14:03:27.468Z,2.10
2022-10-23T14:05:54.050Z,2.50
2022-10-23T14:08:20.494Z,2.40
2022-10-23T14:10:47.039Z,4.53
2022-10-23T14:15:40.344Z,4.82
2022-10-23T14:18:08.431Z,5.65
2022-10-23T14:20:35.336Z,4.50
2022-10-23T14:23:02.458Z,3.85
2022-10-23T14:25:29.056Z,4.18
2022-10-23T14:30:26.740Z,2.58
2022-10-23T14:32:53.357Z,2.10
2022-10-23T14:35:19.802Z,2.10
2022-10-23T14:37:46.635Z,2.13
2022-10-23T14:40:13.447Z,2.70
2022-10-23T14:45:06.947Z,2.28
2022-10-23T14:47:33.402Z,2.50
2022-10-23T14:49:59.964Z,2.05
2022-10-23T14:54:53.438Z,2.88
2022-10-23T14:57:21.963Z,3.78
2022-10-23T14:59:49.575Z,4.50
2022-10-23T15:02:16.797Z,3.85
2022-10-23T15:04:43.435Z,2.75
2022-10-23T15:07:09.993Z,2.55
2022-10-23T15:12:04.366Z,2.30
2022-10-23T15:14:31.004Z,2.67
2022-10-23T15:16:57.611Z,2.47
2022-10-23T15:21:51.430Z,2.92
2022-10-23T15:24:18.706Z,2.83
2022-10-23T15:26:45.170Z,2.90
2022-10-23T15:31:38.214Z,3.33
2022-10-23T15:34:05.805Z,3.30
2022-10-23T15:36:32.836Z,3.03
2022-10-23T15:38:59.664Z,4.22
2022-10-23T15:41:29.121Z,3.50
2022-10-23T15:43:55.661Z,4.05
2022-10-23T15:48:48.500Z,2.95
2022-10-23T15:51:14.941Z,2.47
2022-10-23T15:53:41.420Z,3.33
2022-10-23T15:58:34.223Z,2.92
2022-10-23T16:01:07.751Z,3.95
2022-10-23T16:03:35.914Z,3.50
2022-10-23T16:06:07.619Z,2.95
2022-10-23T16:08:34.154Z,3.15
2022-10-23T16:13:27.544Z,4.20
2022-10-23T16:15:54.371Z,3.85
2022-10-23T16:18:22.332Z,3.28
2022-10-23T16:20:51.074Z,4.80
2022-10-23T16:23:17.609Z,5.30
2022-10-23T16:28:10.507Z,6.05
2022-10-23T16:30:43.615Z,6.28
2022-10-23T16:33:10.236Z,6.63
2022-10-23T16:38:11.696Z,5.22
2022-10-23T16:40:38.131Z,5.00
2022-10-23T16:43:23.587Z,4.68
2022-10-23T16:46:15.296Z,4.60
2022-10-23T16:48:42.751Z,4.47
2022-10-23T16:51:12.235Z,4.57
2022-10-23T16:53:39.325Z,5.18
2022-10-23T16:56:07.311Z,5.10
2022-10-23T16:58:34.477Z,4.88
2022-10-23T17:01:07.018Z,4.70
2022-10-23T17:03:38.933Z,4.60
2022-10-23T17:06:11.249Z,6.55
2022-10-23T17:08:38.653Z,5.22
2022-10-23T17:11:13.021Z,5.68
2022-10-23T17:13:49.141Z,7.10
2022-10-23T17:16:31.707Z,7.60
2022-10-23T17:18:58.356Z,6.50
2022-10-23T17:21:24.807Z,7.38
2022-10-23T17:23:52.321Z,7.88
2022-10-23T17:26:20.708Z,6.78
2022-10-23T17:28:47.387Z,7.20
2022-10-23T17:31:20.223Z,6.68
2022-10-23T17:33:48.462Z,7.20
2022-10-23T17:36:16.099Z,6.60
2022-10-23T17:38:45.780Z,5.85
2022-10-23T17:41:14.259Z,5.45
2022-10-23T17:43:42.703Z,5.63
2022-10-23T17:46:10.542Z,6.30
2022-10-23T17:48:37.593Z,8.00
2022-10-23T17:51:05.538Z,6.82
2022-10-23T17:53:33.220Z,7.05
2022-10-23T17:56:02.459Z,5.82
2022-10-23T17:58:29.174Z,5.38
2022-10-23T18:00:56.100Z,5.75
2022-10-23T18:03:22.571Z,5.28
2022-10-23T18:05:49.041Z,6.07
2022-10-23T18:10:41.918Z,5.22
2022-10-23T18:13:08.340Z,5.45
2022-10-23T18:15:35.741Z,5.93
2022-10-23T18:18:07.671Z,6.57
2022-10-23T18:20:39.930Z,6.07
2022-10-23T18:23:07.201Z,7.00
2022-10-23T18:25:34.254Z,6.38
2022-10-23T18:28:02.486Z,6.45
2022-10-23T18:30:29.247Z,6.25
2022-10-23T18:35:25.023Z,6.60
2022-10-23T18:37:51.561Z,7.03
2022-10-23T18:42:44.900Z,8.88
2022-10-23T18:45:13.132Z,8.15
2022-10-23T18:47:39.594Z,7.93
2022-10-23T18:50:06.611Z,7.45
2022-10-23T18:52:33.048Z,8.00
2022-10-23T18:54:59.532Z,7.22
2022-10-23T18:57:26.161Z,7.25
2022-10-23T18:59:55.727Z,7.30
2022-10-23T19:02:22.368Z,7.85
2022-10-23T19:04:48.956Z,6.78
2022-10-23T19:07:15.464Z,7.50
2022-10-23T19:12:09.942Z,8.35
2022-10-23T19:14:36.458Z,7.40
2022-10-23T19:17:07.810Z,6.50
2022-10-23T19:19:47.015Z,6.28
2022-10-23T19:22:15.211Z,6.47
2022-10-23T19:24:46.667Z,6.97
2022-10-23T19:27:13.282Z,6.00
2022-10-23T19:32:09.241Z,6.45
2022-10-23T19:37:02.523Z,6.63
2022-10-23T19:39:29.183Z,7.13
2022-10-23T19:41:56.000Z,7.57
2022-10-23T19:44:22.481Z,7.13
2022-10-23T19:49:15.778Z,6.32
2022-10-23T19:54:17.998Z,7.75
2022-10-23T19:56:44.448Z,6.78
2022-10-23T19:59:12.969Z,6.95
2022-10-23T20:01:43.794Z,7.53
2022-10-23T20:04:12.972Z,6.90
2022-10-23T20:09:09.766Z,7.13
2022-10-23T20:11:38.384Z,8.07
2022-10-23T20:14:05.498Z,7.32
2022-10-23T20:16:35.134Z,7.53
2022-10-23T20:19:03.550Z,8.35
2022-10-23T20:21:30.408Z,7.57
2022-10-23T20:23:58.410Z,8.82
2022-10-23T20:26:24.977Z,9.00
2022-10-23T20:31:20.951Z,9.75
2022-10-23T20:33:47.877Z,12.45
2022-10-23T20:36:35.527Z,10.75
2022-10-23T20:41:33.048Z,10.38
2022-10-23T20:44:00.242Z,9.32
2022-10-23T20:46:26.980Z,10.18
2022-10-23T20:48:53.870Z,9.07
2022-10-23T20:51:22.933Z,9.25
2022-10-23T20:53:50.801Z,7.80
2022-10-23T20:56:17.258Z,8.15
2022-10-23T20:58:43.855Z,8.02
2022-10-23T21:03:40.792Z,9.05
2022-10-23T21:06:13.389Z,5.97
2022-10-23T21:08:40.648Z,5.93
2022-10-23T21:11:10.215Z,5.57
2022-10-23T21:13:36.677Z,6.55
2022-10-23T21:16:19.276Z,5.55
2022-10-23T21:18:47.022Z,7.57
2022-10-23T21:21:16.956Z,6.43
2022-10-23T21:23:43.626Z,5.18
2022-10-23T21:26:10.110Z,5.50
2022-10-23T21:28:36.679Z,4.85
2022-10-23T21:33:34.718Z,4.45
2022-10-23T21:36:13.514Z,6.22
2022-10-23T21:38:40.565Z,6.38
2022-10-23T21:41:08.752Z,7.03
2022-10-23T21:43:35.213Z,6.28
2022-10-23T21:46:05.896Z,6.53
2022-10-23T21:48:32.855Z,7.45
2022-10-23T21:51:00.173Z,7.68
2022-10-23T21:53:27.670Z,7.18
2022-10-23T21:55:55.123Z,7.80
2022-10-23T21:58:22.122Z,7.00
2022-10-23T22:17:24.050Z,9.45
2022-10-23T22:22:16.875Z,11.15
2022-10-23T22:27:09.745Z,8.32
2022-10-23T22:29:36.195Z,9.65
2022-10-23T22:32:02.665Z,8.90
2022-10-23T22:37:16.702Z,4.75
2022-10-23T22:42:09.647Z,4.18
2022-10-23T22:47:02.816Z,4.90
2022-10-23T22:49:29.418Z,4.53
2022-10-23T22:54:22.305Z,5.32
2022-10-23T22:56:48.745Z,6.10
2022-10-23T22:59:15.201Z,9.27
2022-10-23T23:01:44.760Z,8.95
2022-10-23T23:04:36.815Z,8.77
2022-10-23T23:06:59.390Z,7.63
2022-10-23T23:09:28.338Z,5.07
2022-10-23T23:11:54.845Z,4.28
2022-10-23T23:16:52.802Z,4.35
2022-10-23T23:19:19.912Z,4.22
2022-10-23T23:21:46.409Z,2.58
2022-10-23T23:24:12.845Z,3.00
2022-10-23T23:29:06.004Z,3.15
2022-10-23T23:31:32.477Z,3.33
2022-10-23T23:36:26.892Z,2.42
2022-10-23T23:38:54.229Z,2.63
2022-10-23T23:41:21.858Z,2.60
2022-10-23T23:43:48.568Z,2.65
2022-10-23T23:46:15.901Z,3.10
2022-10-23T23:48:47.303Z,2.40
2022-10-23T23:51:18.236Z,2.33
2022-10-23T23:53:44.835Z,3.15
2022-10-23T23:58:37.732Z,2.63
